Terminal Aerodrome Forecast
Issued by NWS

Home | Current Version | Previous Version | Text Only | Print | Product List | Glossary On
Versions: 1 2 3 4 5 6 7 8 9 10 11 12
670
FTUS44 KLIX 251740
TAFGPT
TAF
KGPT 251740Z 2518/2618 04005KT P6SM VCSH SCT023 BKN060
      TEMPO 2518/2522 VRB10G22KT 2SM TSRA BKN022CB
     FM260000 08006KT P6SM FEW030 SCT100
     FM261500 13005KT P6SM SCT030=

USA.gov is the U.S. government's official web portal to all federal, state and local government web resources and services.